createdAt,value
2018-06-11T00:02:02.231Z,28.53
2018-06-11T00:04:31.068Z,28.70
2018-06-11T00:06:59.868Z,28.70
2018-06-11T00:09:29.019Z,31.80
2018-06-11T00:11:57.847Z,32.10
2018-06-11T00:14:26.680Z,33.70
2018-06-11T00:16:55.503Z,31.00
2018-06-11T00:19:24.417Z,36.20
2018-06-11T00:21:53.247Z,33.87
2018-06-11T00:24:22.091Z,31.60
2018-06-11T00:26:50.928Z,32.10
2018-06-11T00:29:19.738Z,34.90
2018-06-11T00:31:48.572Z,33.17
2018-06-11T00:34:17.399Z,33.23
2018-06-11T00:36:46.265Z,32.47
2018-06-11T00:39:16.069Z,34.50
2018-06-11T00:41:44.887Z,34.20
2018-06-11T00:44:13.719Z,31.47
2018-06-11T00:46:42.704Z,33.10
2018-06-11T00:49:11.540Z,36.07
2018-06-11T00:51:40.549Z,34.40
2018-06-11T00:54:09.248Z,30.03
2018-06-11T00:56:38.077Z,36.10
2018-06-11T00:59:06.906Z,35.73
2018-06-11T01:01:35.752Z,34.90
2018-06-11T01:04:04.593Z,36.37
2018-06-11T01:06:33.419Z,35.70
2018-06-11T01:09:02.247Z,33.87
2018-06-11T01:11:30.898Z,38.63
2018-06-11T01:13:59.599Z,38.40
2018-06-11T01:16:28.444Z,37.80
2018-06-11T01:18:57.275Z,35.77
2018-06-11T01:21:26.098Z,39.53
2018-06-11T01:23:54.939Z,39.13
2018-06-11T01:26:23.779Z,38.30
2018-06-11T01:28:52.628Z,44.27
2018-06-11T01:31:21.451Z,40.43
2018-06-11T01:33:50.295Z,38.17
2018-06-11T01:36:19.127Z,39.80
2018-06-11T01:38:47.951Z,36.63
2018-06-11T01:41:16.791Z,38.83
2018-06-11T01:43:45.610Z,35.77
2018-06-11T01:46:14.452Z,39.43
2018-06-11T01:48:43.551Z,37.07
2018-06-11T01:51:12.371Z,38.77
2018-06-11T01:53:41.220Z,35.27
2018-06-11T01:56:10.032Z,42.40
2018-06-11T01:58:38.859Z,41.93
2018-06-11T02:01:07.679Z,44.40
2018-06-11T02:03:36.504Z,42.67
2018-06-11T02:06:05.459Z,42.60
2018-06-11T02:08:34.272Z,41.00
2018-06-11T02:11:03.109Z,45.53
2018-06-11T02:13:31.936Z,46.20
2018-06-11T02:16:00.768Z,40.43
2018-06-11T02:18:29.579Z,41.63
2018-06-11T02:20:58.556Z,39.97
2018-06-11T02:23:27.377Z,43.93
2018-06-11T02:25:56.195Z,44.17
2018-06-11T02:28:26.238Z,48.57
2018-06-11T02:30:55.033Z,45.03
2018-06-11T02:33:23.857Z,47.00
2018-06-11T02:35:52.665Z,50.23
2018-06-11T02:38:21.506Z,53.60
2018-06-11T02:40:50.319Z,61.90
2018-06-11T02:43:19.144Z,53.60
2018-06-11T02:45:47.961Z,56.53
2018-06-11T02:48:16.793Z,55.90
2018-06-11T02:50:45.645Z,63.07
2018-06-11T02:53:14.469Z,66.73
2018-06-11T02:55:43.308Z,65.03
2018-06-11T02:58:12.131Z,59.37
2018-06-11T03:00:41.159Z,60.87
2018-06-11T03:03:10.517Z,62.03
2018-06-11T03:05:39.334Z,60.80
2018-06-11T03:08:08.160Z,57.60
2018-06-11T03:10:37.727Z,63.83
2018-06-11T03:13:06.573Z,59.87
2018-06-11T03:15:35.402Z,59.23
2018-06-11T03:18:04.077Z,59.47
2018-06-11T03:20:32.760Z,58.90
2018-06-11T03:23:01.581Z,63.70
2018-06-11T03:25:30.400Z,63.70
2018-06-11T03:27:59.215Z,64.40
2018-06-11T03:30:28.051Z,65.93
2018-06-11T03:32:56.863Z,63.47
2018-06-11T03:35:25.696Z,63.50
2018-06-11T03:37:54.515Z,70.73
2018-06-11T03:40:23.331Z,66.47
2018-06-11T03:42:52.173Z,64.47
2018-06-11T03:45:21.095Z,66.97
2018-06-11T03:47:49.920Z,61.17
2018-06-11T03:50:18.742Z,63.30
2018-06-11T03:52:47.571Z,67.90
2018-06-11T03:55:16.416Z,61.73
2018-06-11T03:57:45.568Z,63.57
2018-06-11T04:00:14.409Z,62.80
2018-06-11T04:02:43.220Z,57.03
2018-06-11T04:05:12.043Z,58.50
2018-06-11T04:07:40.848Z,50.27
2018-06-11T04:10:09.682Z,54.40
2018-06-11T04:12:38.498Z,47.73
2018-06-11T04:15:07.320Z,46.63
2018-06-11T04:17:36.131Z,44.17
2018-06-11T04:20:04.957Z,45.03
2018-06-11T04:22:33.777Z,42.20
2018-06-11T04:25:02.629Z,37.37
2018-06-11T04:27:32.065Z,41.40
2018-06-11T04:30:00.921Z,38.10
2018-06-11T04:32:29.749Z,39.10
2018-06-11T04:34:58.566Z,38.77
2018-06-11T04:37:27.852Z,37.23
2018-06-11T04:39:56.680Z,37.43
2018-06-11T04:42:25.559Z,30.93
2018-06-11T04:44:54.393Z,33.93
2018-06-11T04:47:23.199Z,37.57
2018-06-11T04:49:52.047Z,37.73
2018-06-11T04:52:20.872Z,39.87
2018-06-11T04:54:49.733Z,37.23
2018-06-11T04:57:18.561Z,38.40
2018-06-11T04:59:47.416Z,35.93
2018-06-11T05:02:16.227Z,35.83
2018-06-11T05:04:45.047Z,37.40
2018-06-11T05:07:13.884Z,33.10
2018-06-11T05:09:42.705Z,36.67
2018-06-11T05:12:11.521Z,33.23
2018-06-11T05:14:40.557Z,33.50
2018-06-11T05:17:09.364Z,30.77
2018-06-11T05:19:38.223Z,32.93
2018-06-11T05:22:07.040Z,35.50
2018-06-11T05:24:35.875Z,30.90
2018-06-11T05:27:04.699Z,31.17
2018-06-11T05:29:33.526Z,31.67
2018-06-11T05:32:03.151Z,28.53
2018-06-11T05:34:31.965Z,25.73
2018-06-11T05:37:00.799Z,24.20
2018-06-11T05:39:29.625Z,27.87
2018-06-11T05:41:58.457Z,23.77
2018-06-11T05:44:27.292Z,23.63
2018-06-11T05:46:56.106Z,24.17
2018-06-11T05:49:24.928Z,22.67
2018-06-11T05:51:53.747Z,23.43
2018-06-11T05:54:22.564Z,25.03
2018-06-11T05:56:51.417Z,25.40
2018-06-11T05:59:20.223Z,23.67
2018-06-11T06:01:49.047Z,21.90
2018-06-11T06:04:18.408Z,19.40
2018-06-11T06:06:47.265Z,21.00
2018-06-11T06:09:16.075Z,22.87
2018-06-11T06:11:44.899Z,30.73
2018-06-11T06:14:13.852Z,23.40
2018-06-11T06:16:42.648Z,19.10
2018-06-11T06:19:11.358Z,21.80
2018-06-11T06:21:40.067Z,19.97
2018-06-11T06:24:08.871Z,19.23
2018-06-11T06:26:37.749Z,22.23
2018-06-11T06:29:06.532Z,18.60
2018-06-11T06:31:35.345Z,21.87
2018-06-11T06:34:04.180Z,17.87
2018-06-11T06:36:32.979Z,20.73
2018-06-11T06:39:01.799Z,21.03
2018-06-11T06:41:30.633Z,19.60
2018-06-11T06:43:59.452Z,20.83
2018-06-11T06:46:28.292Z,20.60
2018-06-11T06:48:57.055Z,20.67
2018-06-11T06:51:25.743Z,17.97
2018-06-11T06:53:55.462Z,18.23
2018-06-11T06:56:24.273Z,17.60
2018-06-11T06:58:53.139Z,20.27
2018-06-11T07:01:22.871Z,19.53
2018-06-11T07:03:51.507Z,17.77
2018-06-11T07:06:20.208Z,18.57
2018-06-11T07:08:49.038Z,17.77
2018-06-11T07:11:17.873Z,19.67
2018-06-11T07:13:46.756Z,21.37
2018-06-11T07:16:15.507Z,20.90
2018-06-11T07:18:44.232Z,21.73
2018-06-11T07:21:12.933Z,21.47
2018-06-11T07:23:41.755Z,20.33
2018-06-11T07:26:10.571Z,22.80
2018-06-11T07:28:39.398Z,20.53
2018-06-11T07:31:08.882Z,24.00
2018-06-11T07:33:37.714Z,23.13
2018-06-11T07:36:06.529Z,22.47
2018-06-11T07:38:35.356Z,27.33
2018-06-11T07:41:04.236Z,22.23
2018-06-11T07:43:32.986Z,24.63
2018-06-11T07:46:01.798Z,21.17
2018-06-11T07:48:30.631Z,20.53
2018-06-11T07:50:59.480Z,34.27
2018-06-11T07:53:28.301Z,21.43
2018-06-11T07:55:57.129Z,21.30
2018-06-11T07:58:25.935Z,23.53
2018-06-11T08:00:54.821Z,21.83
2018-06-11T08:03:23.653Z,20.17
2018-06-11T08:05:52.475Z,19.87
2018-06-11T08:08:21.309Z,19.80
2018-06-11T08:10:50.448Z,17.97
2018-06-11T08:13:19.265Z,31.77
2018-06-11T08:15:48.099Z,19.93
2018-06-11T08:18:16.984Z,17.17
2018-06-11T08:20:45.804Z,18.50
2018-06-11T08:23:14.615Z,17.27
2018-06-11T08:25:43.439Z,17.80
2018-06-11T08:28:12.253Z,17.23
2018-06-11T08:30:41.120Z,22.07
2018-06-11T08:33:09.931Z,21.97
2018-06-11T08:35:38.758Z,18.37
2018-06-11T08:38:07.585Z,18.97
2018-06-11T08:40:36.404Z,19.37
2018-06-11T08:43:05.221Z,21.90
2018-06-11T08:45:34.049Z,18.83
2018-06-11T08:48:02.964Z,17.50
2018-06-11T08:50:31.755Z,16.80
2018-06-11T08:53:00.568Z,18.37
2018-06-11T08:55:29.391Z,17.80
2018-06-11T08:57:58.210Z,17.13
2018-06-11T09:00:27.383Z,18.50
2018-06-11T09:02:56.201Z,21.93
2018-06-11T09:05:25.029Z,19.07
2018-06-11T09:07:53.826Z,19.37
2018-06-11T09:10:22.651Z,19.40
2018-06-11T09:12:51.469Z,21.30
2018-06-11T09:15:20.304Z,20.07
2018-06-11T09:17:49.148Z,20.43
2018-06-11T09:20:18.010Z,20.00
2018-06-11T09:22:46.843Z,20.87
2018-06-11T09:25:15.709Z,18.87
2018-06-11T09:27:44.568Z,18.53
2018-06-11T09:30:13.380Z,21.50
2018-06-11T09:32:42.212Z,19.70
2018-06-11T09:35:11.016Z,23.83
2018-06-11T09:37:39.929Z,19.47
2018-06-11T09:40:08.756Z,22.97
2018-06-11T09:42:37.722Z,24.00
2018-06-11T09:45:06.525Z,21.33
2018-06-11T09:47:35.338Z,22.43
2018-06-11T09:50:04.165Z,19.90
2018-06-11T09:52:33.005Z,18.23
2018-06-11T09:55:01.812Z,18.90
2018-06-11T09:57:30.639Z,19.27
2018-06-11T09:59:59.465Z,21.30
2018-06-11T10:02:28.292Z,19.37
2018-06-11T10:04:57.129Z,19.23
2018-06-11T10:07:25.951Z,19.87
2018-06-11T10:09:54.803Z,18.43
2018-06-11T10:12:23.675Z,18.87
2018-06-11T10:14:52.469Z,19.63
2018-06-11T10:17:21.289Z,18.97
2018-06-11T10:19:50.115Z,18.77
2018-06-11T10:22:18.927Z,18.70
2018-06-11T10:24:47.751Z,19.03
2018-06-11T10:27:16.492Z,21.07
2018-06-11T10:29:45.199Z,20.40
2018-06-11T10:32:14.061Z,21.60
2018-06-11T10:34:42.859Z,19.80
2018-06-11T10:37:11.705Z,20.13
2018-06-11T10:39:40.526Z,19.50
2018-06-11T10:42:09.359Z,19.23
2018-06-11T10:44:38.163Z,18.93
2018-06-11T10:47:07.001Z,18.03
2018-06-11T10:49:35.833Z,17.87
2018-06-11T10:52:04.683Z,16.07
2018-06-11T10:54:33.500Z,18.10
2018-06-11T10:57:02.315Z,18.30
2018-06-11T10:59:31.145Z,17.47
2018-06-11T11:02:00.623Z,17.37
2018-06-11T11:04:29.464Z,16.87
2018-06-11T11:06:58.264Z,17.27
2018-06-11T11:09:27.081Z,17.53
2018-06-11T11:11:55.905Z,17.10
2018-06-11T11:14:24.740Z,20.60
2018-06-11T11:16:53.551Z,17.50
2018-06-11T11:19:22.359Z,17.07
2018-06-11T11:21:51.177Z,15.93
2018-06-11T11:24:20.004Z,17.73
2018-06-11T11:26:48.817Z,16.67
2018-06-11T11:29:17.632Z,16.37
2018-06-11T11:31:46.506Z,16.07
2018-06-11T11:34:15.538Z,15.03
2018-06-11T11:36:44.347Z,15.97
2018-06-11T11:44:45.497Z,15.87
2018-06-11T11:47:14.317Z,16.60
2018-06-11T11:49:43.147Z,14.50
2018-06-11T11:52:11.958Z,15.00
2018-06-11T11:54:40.918Z,16.40
2018-06-11T11:57:09.732Z,15.83
2018-06-11T11:59:38.545Z,15.80
2018-06-11T12:02:07.358Z,15.33
2018-06-11T12:04:36.178Z,15.43
2018-06-11T12:07:11.771Z,18.63
2018-06-11T12:09:40.606Z,16.43
2018-06-11T12:12:09.407Z,16.03
2018-06-11T12:14:38.226Z,15.97
2018-06-11T12:17:07.046Z,19.97
2018-06-11T12:19:35.875Z,18.50
2018-06-11T12:22:04.696Z,16.73
2018-06-11T12:24:33.518Z,16.37
2018-06-11T12:27:02.325Z,17.40
2018-06-11T12:29:31.153Z,17.43
2018-06-11T12:31:59.981Z,14.60
2018-06-11T12:34:28.795Z,16.70
2018-06-11T12:36:57.620Z,14.77
2018-06-11T12:39:26.463Z,18.87
2018-06-11T12:41:55.283Z,16.30
2018-06-11T12:44:24.117Z,13.10
2018-06-11T12:46:52.928Z,12.90
2018-06-11T12:49:21.757Z,13.97
2018-06-11T12:51:50.576Z,12.80
2018-06-11T12:54:19.486Z,12.93
2018-06-11T12:56:48.304Z,13.03
2018-06-11T12:59:17.142Z,17.87
2018-06-11T13:01:45.961Z,13.07
2018-06-11T13:04:14.804Z,11.90
2018-06-11T13:06:43.627Z,10.57
2018-06-11T13:09:12.452Z,12.17
2018-06-11T13:11:41.285Z,12.37
2018-06-11T13:14:10.095Z,12.47
2018-06-11T13:16:39.188Z,10.80
2018-06-11T13:19:08.011Z,10.73
2018-06-11T13:21:36.859Z,10.93
2018-06-11T13:24:05.797Z,14.03
2018-06-11T13:26:34.703Z,10.17
2018-06-11T13:29:03.325Z,9.90
2018-06-11T13:31:32.068Z,11.00
2018-06-11T13:34:00.683Z,9.90
2018-06-11T13:36:29.377Z,10.50
2018-06-11T13:38:58.176Z,11.23
2018-06-11T13:41:27.089Z,12.00
2018-06-11T13:43:55.867Z,11.93
2018-06-11T13:46:24.701Z,13.33
2018-06-11T13:48:53.524Z,12.90
2018-06-11T13:51:22.348Z,13.27
2018-06-11T13:53:51.369Z,12.60
2018-06-11T13:56:20.608Z,12.20
2018-06-11T13:58:49.441Z,11.80
2018-06-11T14:01:18.269Z,13.10
2018-06-11T14:03:47.078Z,13.67
2018-06-11T14:06:15.912Z,11.43
2018-06-11T14:08:44.739Z,10.33
2018-06-11T14:11:13.591Z,10.13
2018-06-11T14:13:42.401Z,9.30
2018-06-11T14:16:11.429Z,10.33
2018-06-11T14:18:40.258Z,7.70
2018-06-11T14:21:09.075Z,8.67
2018-06-11T14:23:37.899Z,8.47
2018-06-11T14:26:06.708Z,7.33
2018-06-11T14:28:35.548Z,7.20
2018-06-11T14:31:04.335Z,6.77
2018-06-11T14:33:33.529Z,8.80
2018-06-11T14:36:02.635Z,6.20
2018-06-11T14:38:32.341Z,5.77
2018-06-11T14:41:01.140Z,5.73
2018-06-11T14:43:29.935Z,4.77
2018-06-11T14:45:58.738Z,5.90
2018-06-11T14:48:27.616Z,5.47
2018-06-11T14:50:56.423Z,7.53
2018-06-11T14:53:25.235Z,4.40
2018-06-11T14:55:54.075Z,5.60
2018-06-11T14:58:22.975Z,5.97
2018-06-11T15:00:53.161Z,4.87
2018-06-11T15:03:22.435Z,4.83
2018-06-11T15:05:51.275Z,3.87
2018-06-11T15:08:21.098Z,3.17
2018-06-11T15:10:49.886Z,5.87
2018-06-11T15:13:18.689Z,4.43
2018-06-11T15:15:47.517Z,5.20
2018-06-11T15:18:16.324Z,4.13
2018-06-11T15:20:45.391Z,5.53
2018-06-11T15:23:14.193Z,4.07
2018-06-11T15:25:43.020Z,5.50
2018-06-11T15:28:11.839Z,4.40
2018-06-11T15:30:40.657Z,5.07
2018-06-11T15:33:09.456Z,5.47
2018-06-11T15:35:38.598Z,6.30
2018-06-11T15:38:07.399Z,4.50
2018-06-11T15:40:36.229Z,7.87
2018-06-11T15:43:05.037Z,4.73
2018-06-11T15:45:33.864Z,5.47
2018-06-11T15:48:02.671Z,4.20
2018-06-11T15:50:31.493Z,4.13
2018-06-11T15:53:00.304Z,4.47
2018-06-11T15:55:29.119Z,4.40
2018-06-11T15:57:57.943Z,4.20
2018-06-11T16:00:26.881Z,6.50
2018-06-11T16:02:55.507Z,4.87
2018-06-11T16:05:24.197Z,4.67
2018-06-11T16:07:53.017Z,4.60
2018-06-11T16:10:21.842Z,4.83
2018-06-11T16:12:50.674Z,3.47
2018-06-11T16:15:20.752Z,5.97
2018-06-11T16:17:49.569Z,4.20
2018-06-11T16:20:18.377Z,4.30
2018-06-11T16:22:47.595Z,4.50
2018-06-11T16:25:16.427Z,4.33
2018-06-11T16:27:45.244Z,4.97
2018-06-11T16:30:14.054Z,4.70
2018-06-11T16:32:42.880Z,5.30
2018-06-11T16:35:11.681Z,7.40
2018-06-11T16:37:40.500Z,4.93
2018-06-11T16:40:09.329Z,4.07
2018-06-11T16:42:38.136Z,3.63
2018-06-11T16:45:07.278Z,3.80
2018-06-11T16:47:36.082Z,6.90
2018-06-11T16:50:04.871Z,3.80
2018-06-11T16:52:33.688Z,5.70
2018-06-11T16:55:02.493Z,6.73
2018-06-11T16:57:32.207Z,4.63
2018-06-11T17:00:01.528Z,7.17
2018-06-11T17:02:30.365Z,6.93
2018-06-11T17:04:59.157Z,5.10
2018-06-11T17:07:28.005Z,6.00
2018-06-11T17:09:56.815Z,5.90
2018-06-11T17:12:26.215Z,5.33
2018-06-11T17:14:55.027Z,5.47
2018-06-11T17:17:23.840Z,4.80
2018-06-11T17:19:52.652Z,5.97
2018-06-11T17:22:21.459Z,5.27
2018-06-11T17:24:50.628Z,5.23
2018-06-11T17:27:19.415Z,4.23
2018-06-11T17:29:48.315Z,4.80
2018-06-11T17:32:17.116Z,5.20
2018-06-11T17:34:45.935Z,4.50
2018-06-11T17:37:14.771Z,4.70
2018-06-11T17:39:43.567Z,4.77
2018-06-11T17:42:12.465Z,4.77
2018-06-11T17:44:41.293Z,6.53
2018-06-11T17:47:10.145Z,6.17
2018-06-11T17:49:38.956Z,4.57
2018-06-11T17:52:08.119Z,5.90
2018-06-11T17:54:36.937Z,4.70
2018-06-11T17:57:05.753Z,4.70
2018-06-11T17:59:34.544Z,5.37
2018-06-11T18:02:04.427Z,4.77
2018-06-11T18:04:33.224Z,5.07
2018-06-11T18:07:02.045Z,5.27
2018-06-11T18:09:30.835Z,6.97
2018-06-11T18:12:00.659Z,7.47
2018-06-11T18:14:29.619Z,4.40
2018-06-11T18:16:58.377Z,5.33
2018-06-11T18:19:27.216Z,4.60
2018-06-11T18:21:56.033Z,5.90
2018-06-11T18:24:24.827Z,5.70
2018-06-11T18:26:53.671Z,6.60
2018-06-11T18:29:22.476Z,5.17
2018-06-11T18:31:51.304Z,8.43
2018-06-11T18:34:20.095Z,5.73
2018-06-11T18:36:48.947Z,4.43
2018-06-11T18:39:17.759Z,5.33
2018-06-11T18:41:46.561Z,5.97
2018-06-11T18:44:15.381Z,5.40
2018-06-11T18:46:44.198Z,5.67
2018-06-11T18:49:12.995Z,4.60
2018-06-11T18:51:41.795Z,6.80
2018-06-11T18:54:10.628Z,7.13
2018-06-11T18:56:39.429Z,5.27
2018-06-11T18:59:08.247Z,5.83
2018-06-11T19:01:37.122Z,8.13
2018-06-11T19:04:05.923Z,4.47
2018-06-11T19:06:34.729Z,4.70
2018-06-11T19:09:05.659Z,5.57
2018-06-11T19:11:34.487Z,4.33
2018-06-11T19:14:03.364Z,4.33
2018-06-11T19:16:32.179Z,6.67
2018-06-11T19:19:01.026Z,4.83
2018-06-11T19:21:29.794Z,5.37
2018-06-11T19:23:58.584Z,5.07
2018-06-11T19:26:27.433Z,6.43
2018-06-11T19:28:56.235Z,5.07
2018-06-11T19:31:25.056Z,6.70
2018-06-11T19:33:53.866Z,7.73
2018-06-11T19:36:22.676Z,5.73
2018-06-11T19:38:51.537Z,4.50
2018-06-11T19:41:20.378Z,4.97
2018-06-11T19:43:49.197Z,7.13
2018-06-11T19:46:17.999Z,6.47
2018-06-11T19:48:46.823Z,4.20
2018-06-11T19:51:15.652Z,5.67
2018-06-11T19:53:44.337Z,4.83
2018-06-11T19:56:13.015Z,4.73
2018-06-11T19:58:41.832Z,4.90
2018-06-11T20:01:10.743Z,4.30
2018-06-11T20:03:39.536Z,4.53
2018-06-11T20:06:08.359Z,5.70
2018-06-11T20:08:37.646Z,4.97
2018-06-11T20:11:06.387Z,5.83
2018-06-11T20:13:35.197Z,5.00
2018-06-11T20:16:04.009Z,8.17
2018-06-11T20:18:32.825Z,5.83
2018-06-11T20:21:01.638Z,4.30
2018-06-11T20:23:30.436Z,4.90
2018-06-11T20:25:59.257Z,5.53
2018-06-11T20:28:28.056Z,6.40
2018-06-11T20:30:56.874Z,4.07
2018-06-11T20:33:25.681Z,5.10
2018-06-11T20:35:54.504Z,5.77
2018-06-11T20:38:23.295Z,4.70
2018-06-11T20:40:52.108Z,4.63
2018-06-11T20:43:20.937Z,4.77
2018-06-11T20:45:49.764Z,5.03
2018-06-11T20:48:19.152Z,7.73
2018-06-11T20:50:47.958Z,4.53
2018-06-11T20:53:16.777Z,6.33
2018-06-11T20:55:45.659Z,7.47
2018-06-11T20:58:14.499Z,4.73
2018-06-11T21:00:43.645Z,7.20
2018-06-11T21:03:12.440Z,5.03
2018-06-11T21:05:41.256Z,3.90
2018-06-11T21:08:10.083Z,4.90
2018-06-11T21:10:38.899Z,4.73
2018-06-11T21:13:07.968Z,5.90
2018-06-11T21:15:36.625Z,5.30
2018-06-11T21:18:05.397Z,5.13
2018-06-11T21:20:34.228Z,6.43
2018-06-11T21:23:03.052Z,6.00
2018-06-11T21:25:31.889Z,6.63
2018-06-11T21:28:00.696Z,5.27
2018-06-11T21:30:29.509Z,5.70
2018-06-11T21:32:58.325Z,6.73
2018-06-11T21:35:27.133Z,5.20
2018-06-11T21:37:55.971Z,4.70
2018-06-11T21:40:24.759Z,5.00
2018-06-11T21:42:53.641Z,5.20
2018-06-11T21:45:22.466Z,7.90
2018-06-11T21:47:51.293Z,5.00
2018-06-11T21:50:20.096Z,6.83
2018-06-11T21:52:48.911Z,6.93
2018-06-11T21:55:17.721Z,9.73
2018-06-11T21:57:47.205Z,4.63
2018-06-11T22:00:16.529Z,5.63
2018-06-11T22:02:45.650Z,7.30
2018-06-11T22:05:14.473Z,5.10
2018-06-11T22:07:43.288Z,6.77
2018-06-11T22:10:12.117Z,5.17
2018-06-11T22:12:40.924Z,7.37
2018-06-11T22:15:09.738Z,8.57
2018-06-11T22:17:38.585Z,6.00
2018-06-11T22:20:07.396Z,6.00
2018-06-11T22:22:36.588Z,5.53
2018-06-11T22:25:05.398Z,4.70
2018-06-11T22:27:34.279Z,4.97
2018-06-11T22:30:03.092Z,7.23
2018-06-11T22:32:31.914Z,4.90
2018-06-11T22:35:00.739Z,5.77
2018-06-11T22:37:29.544Z,7.97
2018-06-11T22:39:58.356Z,8.37
2018-06-11T22:42:27.182Z,5.10
2018-06-11T22:44:56.060Z,6.53
2018-06-11T22:47:24.860Z,6.40
2018-06-11T22:49:53.684Z,5.53
2018-06-11T22:52:23.164Z,8.47
2018-06-11T22:54:51.993Z,5.73
2018-06-11T22:57:20.797Z,6.00
2018-06-11T22:59:49.608Z,6.83
2018-06-11T23:02:18.421Z,5.93
2018-06-11T23:04:47.242Z,6.27
2018-06-11T23:07:16.070Z,7.07
2018-06-11T23:09:44.895Z,5.37
2018-06-11T23:12:13.795Z,6.80
2018-06-11T23:14:42.618Z,6.00
2018-06-11T23:17:11.429Z,7.37
2018-06-11T23:19:40.148Z,5.97
2018-06-11T23:22:08.840Z,7.73
2018-06-11T23:24:37.656Z,9.30
2018-06-11T23:27:06.717Z,6.67
2018-06-11T23:29:35.808Z,7.07
2018-06-11T23:32:04.622Z,7.67
2018-06-11T23:34:33.470Z,6.43
2018-06-11T23:37:02.275Z,7.47
2018-06-11T23:39:31.084Z,9.13
2018-06-11T23:41:59.891Z,6.67
2018-06-11T23:44:28.718Z,5.73
2018-06-11T23:46:57.548Z,5.00
2018-06-11T23:49:26.368Z,6.93
2018-06-11T23:51:55.184Z,7.93
2018-06-11T23:54:23.992Z,5.53
2018-06-11T23:56:52.801Z,5.67
2018-06-11T23:59:21.608Z,7.93
